createdAt,value
2019-06-01T00:02:02.518Z,101879.86
2019-06-01T00:05:09.275Z,101874.45
2019-06-01T00:08:15.691Z,101886.39
2019-06-01T00:11:22.123Z,101882.59
2019-06-01T00:14:28.487Z,101886.61
2019-06-01T00:17:35.116Z,101890.99
2019-06-01T00:20:42.208Z,101890.99
2019-06-01T00:23:48.791Z,101883.48
2019-06-01T00:26:55.223Z,101895.23
2019-06-01T00:30:01.675Z,101903.06
2019-06-01T00:33:08.086Z,101900.80
2019-06-01T00:36:14.573Z,101896.88
2019-06-01T00:39:21.339Z,101891.19
2019-06-01T00:42:27.823Z,101901.88
2019-06-01T00:45:34.233Z,101894.61
2019-06-01T00:48:41.709Z,101899.02
2019-06-01T00:51:49.082Z,101905.08
2019-06-01T00:54:55.579Z,101895.38
2019-06-01T00:58:01.873Z,101887.78
2019-06-01T01:01:08.522Z,101895.08
2019-06-01T01:04:14.874Z,101905.92
2019-06-01T01:07:21.326Z,101903.19
2019-06-01T01:10:27.655Z,101896.83
2019-06-01T01:13:34.086Z,101902.17
2019-06-01T01:16:40.538Z,101904.38
2019-06-01T01:19:47.664Z,101902.16
2019-06-01T01:22:54.382Z,101903.71
2019-06-01T01:26:00.747Z,101891.41
2019-06-01T01:29:08.161Z,101885.27
2019-06-01T01:32:14.577Z,101884.80
2019-06-01T01:35:20.964Z,101890.45
2019-06-01T01:38:27.418Z,101884.61
2019-06-01T01:41:34.025Z,101885.13
2019-06-01T01:44:41.573Z,101881.98
2019-06-01T01:47:49.420Z,101878.48
2019-06-01T01:50:56.458Z,101882.52
2019-06-01T01:54:04.520Z,101875.86
2019-06-01T01:57:11.115Z,101875.86
2019-06-01T02:00:32.510Z,101884.20
2019-06-01T02:03:39.047Z,101876.56
2019-06-01T02:06:45.425Z,101876.71
2019-06-01T02:09:53.037Z,101883.89
2019-06-01T02:12:59.733Z,101880.75
2019-06-01T02:16:06.187Z,101870.95
2019-06-01T02:19:12.525Z,101855.58
2019-06-01T02:22:19.117Z,101855.58
2019-06-01T02:25:25.666Z,101877.60
2019-06-01T02:28:32.043Z,101866.61
2019-06-01T02:31:42.356Z,101861.52
2019-06-01T02:34:46.740Z,101862.80
2019-06-01T02:37:54.725Z,101857.09
2019-06-01T02:41:03.056Z,101856.11
2019-06-01T02:44:09.665Z,101858.58
2019-06-01T02:47:16.138Z,101853.48
2019-06-01T02:50:23.288Z,101853.91
2019-06-01T02:53:30.821Z,101851.79
2019-06-01T02:56:37.199Z,101847.64
2019-06-01T02:59:43.660Z,101849.17
2019-06-01T03:02:49.991Z,101851.44
2019-06-01T03:05:57.452Z,101844.08
2019-06-01T03:09:08.349Z,101844.16
2019-06-01T03:12:15.977Z,101838.62
2019-06-01T03:15:22.260Z,101839.08
2019-06-01T03:18:30.599Z,101843.70
2019-06-01T03:21:37.036Z,101846.89
2019-06-01T03:24:46.116Z,101848.90
2019-06-01T03:27:54.236Z,101843.31
2019-06-01T03:31:03.494Z,101847.75
2019-06-01T03:34:11.489Z,101849.55
2019-06-01T03:37:18.200Z,101840.49
2019-06-01T03:40:24.552Z,101837.97
2019-06-01T03:43:31.042Z,101838.28
2019-06-01T03:46:37.737Z,101834.27
2019-06-01T03:49:44.183Z,101840.33
2019-06-01T03:52:50.470Z,101826.41
2019-06-01T03:55:56.869Z,101826.11
2019-06-01T03:59:03.315Z,101827.64
2019-06-01T04:02:11.132Z,101816.89
2019-06-01T04:05:17.547Z,101822.02
2019-06-01T04:08:24.019Z,101813.56
2019-06-01T04:11:30.505Z,101820.20
2019-06-01T04:14:37.099Z,101808.42
2019-06-01T04:17:43.484Z,101817.66
2019-06-01T04:20:49.979Z,101823.11
2019-06-01T04:23:56.353Z,101823.09
2019-06-01T04:27:04.109Z,101829.82
2019-06-01T04:30:11.498Z,101833.69
2019-06-01T04:33:18.057Z,101834.64
2019-06-01T04:36:24.327Z,101836.17
2019-06-01T04:39:32.019Z,101830.03
2019-06-01T04:42:38.369Z,101831.64
2019-06-01T04:45:44.788Z,101823.19
2019-06-01T04:48:51.678Z,101833.13
2019-06-01T04:51:58.193Z,101828.76
2019-06-01T04:55:05.214Z,101831.73
2019-06-01T04:58:13.063Z,101835.92
2019-06-01T05:01:19.466Z,101833.53
2019-06-01T05:04:26.210Z,101838.02
2019-06-01T05:07:32.619Z,101839.44
2019-06-01T05:10:38.959Z,101822.33
2019-06-01T05:13:46.405Z,101824.72
2019-06-01T05:16:52.967Z,101831.16
2019-06-01T05:19:59.331Z,101828.70
2019-06-01T05:23:06.565Z,101825.17
2019-06-01T05:26:13.262Z,101830.37
2019-06-01T05:29:21.373Z,101819.39
2019-06-01T05:32:27.953Z,101814.08
2019-06-01T05:35:34.410Z,101814.32
2019-06-01T05:38:40.776Z,101814.59
2019-06-01T05:41:47.503Z,101812.22
2019-06-01T05:44:54.184Z,101810.19
2019-06-01T05:48:00.584Z,101803.34
2019-06-01T05:51:07.332Z,101810.24
2019-06-01T05:54:16.695Z,101802.85
2019-06-01T05:57:23.331Z,101786.41
2019-06-01T06:00:43.014Z,101784.78
2019-06-01T06:03:49.409Z,101779.14
2019-06-01T06:06:55.908Z,101780.55
2019-06-01T06:10:02.450Z,101787.09
2019-06-01T06:13:08.807Z,101778.48
2019-06-01T06:16:15.734Z,101782.58
2019-06-01T06:19:23.768Z,101788.02
2019-06-01T06:22:30.167Z,101783.44
2019-06-01T06:25:39.649Z,101777.22
2019-06-01T06:28:44.660Z,101770.48
2019-06-01T06:31:51.279Z,101769.86
2019-06-01T06:34:57.858Z,101764.27
2019-06-01T06:38:04.300Z,101767.42
2019-06-01T06:41:10.622Z,101763.67
2019-06-01T06:44:17.148Z,101759.91
2019-06-01T06:47:23.468Z,101756.71
2019-06-01T06:50:29.973Z,101757.77
2019-06-01T06:53:36.481Z,101748.92
2019-06-01T06:56:43.094Z,101742.84
2019-06-01T06:59:50.470Z,101737.27
2019-06-01T07:02:56.868Z,101734.44
2019-06-01T07:06:03.247Z,101730.64
2019-06-01T07:09:09.724Z,101732.52
2019-06-01T07:12:16.124Z,101733.14
2019-06-01T07:15:23.487Z,101726.41
2019-06-01T07:18:29.905Z,101721.55
2019-06-01T07:21:36.898Z,101725.56
2019-06-01T07:24:43.269Z,101716.82
2019-06-01T07:27:49.756Z,101711.45
2019-06-01T07:30:58.858Z,101716.83
2019-06-01T07:34:05.494Z,101711.23
2019-06-01T07:37:12.094Z,101710.68
2019-06-01T07:40:20.962Z,101703.53
2019-06-01T07:43:27.413Z,101693.48
2019-06-01T07:46:33.975Z,101684.75
2019-06-01T07:49:40.305Z,101682.30
2019-06-01T07:52:46.687Z,101671.47
2019-06-01T07:55:53.260Z,101666.23
2019-06-01T07:58:59.668Z,101667.47
2019-06-01T08:02:06.039Z,101660.04
2019-06-01T08:05:12.551Z,101658.77
2019-06-01T08:08:18.884Z,101650.44
2019-06-01T08:11:29.349Z,101643.40
2019-06-01T08:14:33.273Z,101641.35
2019-06-01T08:17:39.632Z,101636.52
2019-06-01T08:20:46.036Z,101623.73
2019-06-01T08:23:52.450Z,101623.73
2019-06-01T08:26:58.908Z,101621.80
2019-06-01T08:30:05.986Z,101621.80
2019-06-01T08:33:12.385Z,101619.55
2019-06-01T08:36:18.742Z,101617.74
2019-06-01T08:39:25.320Z,101609.80
2019-06-01T08:42:31.920Z,101604.39
2019-06-01T08:45:38.343Z,101607.61
2019-06-01T08:48:44.856Z,101604.48
2019-06-01T08:51:52.373Z,101612.17
2019-06-01T08:55:00.688Z,101604.20
2019-06-01T08:58:07.136Z,101605.70
2019-06-01T09:01:13.811Z,101601.80
2019-06-01T09:04:20.235Z,101595.61
2019-06-01T09:07:26.912Z,101598.12
2019-06-01T09:10:33.363Z,101606.45
2019-06-01T09:13:39.888Z,101602.61
2019-06-01T09:16:46.321Z,101596.50
2019-06-01T09:19:52.659Z,101598.25
2019-06-01T09:22:58.967Z,101591.45
2019-06-01T09:26:05.488Z,101587.20
2019-06-01T09:29:12.045Z,101581.19
2019-06-01T09:32:18.467Z,101580.81
2019-06-01T09:35:44.718Z,101568.91
2019-06-01T09:38:33.850Z,101565.30
2019-06-01T09:41:41.536Z,101567.98
2019-06-01T09:44:47.895Z,101559.28
2019-06-01T09:47:54.236Z,101562.33
2019-06-01T09:51:00.865Z,101558.47
2019-06-01T09:54:07.325Z,101558.58
2019-06-01T09:57:13.858Z,101555.55
2019-06-01T10:00:21.547Z,101551.23
2019-06-01T10:03:28.405Z,101547.48
2019-06-01T10:06:34.863Z,101537.70
2019-06-01T10:09:42.191Z,101544.05
2019-06-01T10:12:48.572Z,101547.16
2019-06-01T10:15:55.186Z,101532.98
2019-06-01T10:19:01.529Z,101532.98
2019-06-01T10:22:07.981Z,101538.55
2019-06-01T10:25:14.399Z,101538.55
2019-06-01T10:28:20.896Z,101531.16
2019-06-01T10:31:27.290Z,101529.23
2019-06-01T10:34:33.590Z,101545.02
2019-06-01T10:37:40.087Z,101529.22
2019-06-01T10:40:46.492Z,101525.04
2019-06-01T10:43:52.961Z,101528.77
2019-06-01T10:46:59.410Z,101513.14
2019-06-01T10:50:06.407Z,101515.39
2019-06-01T10:53:12.853Z,101506.87
2019-06-01T10:56:19.139Z,101493.18
2019-06-01T10:59:25.669Z,101469.90
2019-06-01T11:02:32.588Z,101471.78
2019-06-01T11:05:39.194Z,101454.17
2019-06-01T11:08:45.562Z,101462.59
2019-06-01T11:11:52.104Z,101433.97
2019-06-01T11:14:58.474Z,101428.78
2019-06-01T11:18:05.057Z,101429.08
2019-06-01T11:21:11.477Z,101425.97
2019-06-01T11:24:19.017Z,101426.13
2019-06-01T11:27:25.269Z,101424.83
2019-06-01T11:30:31.866Z,101418.41
2019-06-01T11:33:38.256Z,101419.87
2019-06-01T11:37:03.197Z,101421.02
2019-06-01T11:39:52.927Z,101402.77
2019-06-01T11:42:59.382Z,101402.77
2019-06-01T11:46:06.000Z,101411.55
2019-06-01T11:49:12.591Z,101419.03
2019-06-01T11:52:18.961Z,101407.75
2019-06-01T11:55:25.459Z,101408.05
2019-06-01T11:58:32.000Z,101408.05
2019-06-01T12:01:39.833Z,101408.05
2019-06-01T12:04:46.484Z,101405.42
2019-06-01T12:07:53.143Z,101387.25
2019-06-01T12:10:59.504Z,101387.25
2019-06-01T12:14:05.924Z,101395.87
2019-06-01T12:17:12.302Z,101379.66
2019-06-01T12:20:19.020Z,101367.97
2019-06-01T12:23:25.413Z,101364.78
2019-06-01T12:26:33.042Z,101351.30
2019-06-01T12:29:39.487Z,101337.92
2019-06-01T12:32:46.164Z,101316.92
2019-06-01T12:35:52.452Z,101316.92
2019-06-01T12:38:59.214Z,101325.19
2019-06-01T12:42:05.583Z,101325.73
2019-06-01T12:45:22.725Z,101306.83
2019-06-01T12:48:26.997Z,101295.55
2019-06-01T12:51:33.486Z,101295.55
2019-06-01T12:54:40.369Z,101300.44
2019-06-01T12:57:47.183Z,101283.44
2019-06-01T13:00:53.538Z,101288.24
2019-06-01T13:04:00.072Z,101272.80
2019-06-01T13:07:07.424Z,101272.80
2019-06-01T13:10:14.075Z,101283.75
2019-06-01T13:13:20.441Z,101272.47
2019-06-01T13:16:26.928Z,101266.44
2019-06-01T13:19:33.181Z,101274.73
2019-06-01T13:22:39.528Z,101278.26
2019-06-01T13:25:45.801Z,101271.08
2019-06-01T13:28:52.638Z,101270.03
2019-06-01T13:31:58.965Z,101255.81
2019-06-01T13:35:06.193Z,101257.75
2019-06-01T13:38:12.750Z,101261.62
2019-06-01T13:41:19.264Z,101252.35
2019-06-01T13:44:25.542Z,101238.23
2019-06-01T13:47:31.944Z,101230.63
2019-06-01T13:50:38.495Z,101230.63
2019-06-01T13:53:46.302Z,101222.67
2019-06-01T13:56:53.112Z,101217.64
2019-06-01T13:59:59.583Z,101203.13
2019-06-01T14:03:07.180Z,101216.26
2019-06-01T14:06:13.716Z,101213.89
2019-06-01T14:09:21.935Z,101201.60
2019-06-01T14:12:28.871Z,101195.06
2019-06-01T14:15:35.264Z,101180.34
2019-06-01T14:18:41.615Z,101174.59
2019-06-01T14:21:48.091Z,101183.30
2019-06-01T14:25:11.863Z,101184.75
2019-06-01T14:28:02.513Z,101180.09
2019-06-01T14:31:09.057Z,101175.92
2019-06-01T14:34:15.486Z,101176.05
2019-06-01T14:37:22.031Z,101143.70
2019-06-01T14:40:28.306Z,101143.70
2019-06-01T14:43:34.740Z,101150.61
2019-06-01T14:46:53.362Z,101153.69
2019-06-01T14:49:53.480Z,101144.52
2019-06-01T14:53:00.148Z,101145.33
2019-06-01T14:56:06.694Z,101139.49
2019-06-01T14:59:13.087Z,101145.70
2019-06-01T15:02:19.654Z,101139.43
2019-06-01T15:05:26.012Z,101133.00
2019-06-01T15:08:32.441Z,101136.21
2019-06-01T15:11:39.160Z,101117.64
2019-06-01T15:14:45.567Z,101118.97
2019-06-01T15:17:51.898Z,101112.87
2019-06-01T15:20:58.312Z,101101.63
2019-06-01T15:24:04.999Z,101106.92
2019-06-01T15:27:11.446Z,101083.27
2019-06-01T15:30:19.111Z,101080.83
2019-06-01T15:33:25.510Z,101080.83
2019-06-01T15:36:33.129Z,101054.70
2019-06-01T15:39:39.650Z,101058.82
2019-06-01T15:42:46.033Z,101054.56
2019-06-01T15:45:53.291Z,101049.97
2019-06-01T15:49:00.168Z,101044.68
2019-06-01T15:52:06.595Z,101046.91
2019-06-01T15:55:13.395Z,101026.41
2019-06-01T15:58:19.756Z,101032.42
2019-06-01T16:01:26.231Z,101011.53
2019-06-01T16:04:32.837Z,101011.53
2019-06-01T16:07:39.259Z,101026.27
2019-06-01T16:10:45.666Z,101015.90
2019-06-01T16:13:55.684Z,101014.75
2019-06-01T16:17:02.909Z,101001.90
2019-06-01T16:20:10.981Z,100999.76
2019-06-01T16:23:18.244Z,100996.39
2019-06-01T16:26:24.712Z,100993.87
2019-06-01T16:29:31.221Z,100978.83
2019-06-01T16:32:39.584Z,100964.91
2019-06-01T16:35:45.693Z,100964.91
2019-06-01T16:38:59.521Z,100963.42
2019-06-01T16:42:02.186Z,100960.59
2019-06-01T16:45:08.816Z,100960.59
2019-06-01T16:48:15.331Z,100955.88
2019-06-01T16:51:22.082Z,100958.66
2019-06-01T16:54:28.548Z,100950.73
2019-06-01T16:57:35.180Z,100954.00
2019-06-01T17:00:41.702Z,100959.56
2019-06-01T17:03:48.084Z,100953.80
2019-06-01T17:06:54.718Z,100933.70
2019-06-01T17:10:19.243Z,100933.70
2019-06-01T17:13:09.337Z,100935.47
2019-06-01T17:16:15.917Z,100931.62
2019-06-01T17:19:22.541Z,100919.81
2019-06-01T17:22:29.033Z,100924.73
2019-06-01T17:25:35.419Z,100919.45
2019-06-01T17:28:42.000Z,100917.46
2019-06-01T17:31:54.456Z,100913.14
2019-06-01T17:34:56.623Z,100910.00
2019-06-01T17:38:03.064Z,100910.55
2019-06-01T17:41:10.385Z,100903.31
2019-06-01T17:44:16.947Z,100900.39
2019-06-01T17:47:27.100Z,100894.30
2019-06-01T17:50:31.575Z,100900.12
2019-06-01T17:53:38.028Z,100892.27
2019-06-01T17:56:44.888Z,100892.27
2019-06-01T17:59:51.581Z,100897.05
2019-06-01T18:02:58.144Z,100912.77
2019-06-01T18:06:05.893Z,100908.45
2019-06-01T18:09:12.553Z,100918.08
2019-06-01T18:12:19.054Z,100916.53
2019-06-01T18:15:25.641Z,100916.13
2019-06-01T18:18:33.265Z,100909.08
2019-06-01T18:21:39.772Z,100920.07
2019-06-01T18:24:46.049Z,100941.19
2019-06-01T18:27:52.578Z,100948.42
2019-06-01T18:30:59.060Z,100959.02
2019-06-01T18:34:05.904Z,100948.63
2019-06-01T18:37:13.476Z,100962.89
2019-06-01T18:40:21.940Z,100972.19
2019-06-01T18:43:28.214Z,100981.83
2019-06-01T18:46:34.767Z,100990.18
2019-06-01T18:49:41.126Z,100984.62
2019-06-01T18:52:50.673Z,100992.89
2019-06-01T18:55:57.014Z,100989.52
2019-06-01T18:59:06.859Z,100988.38
2019-06-01T19:02:14.587Z,100991.67
2019-06-01T19:05:21.145Z,100998.67
2019-06-01T19:08:27.523Z,100996.52
2019-06-01T19:11:36.210Z,101014.30
2019-06-01T19:14:42.138Z,101009.90
2019-06-01T19:17:48.580Z,101007.75
2019-06-01T19:20:55.098Z,101018.13
2019-06-01T19:24:01.529Z,101011.55
2019-06-01T19:27:08.658Z,101023.03
2019-06-01T19:30:17.266Z,101015.02
2019-06-01T19:33:23.585Z,101018.13
2019-06-01T19:36:30.830Z,101028.02
2019-06-01T19:39:38.100Z,101012.92
2019-06-01T19:42:44.511Z,101022.69
2019-06-01T19:45:51.023Z,101001.08
2019-06-01T19:48:57.470Z,101001.08
2019-06-01T19:52:03.848Z,101010.64
2019-06-01T19:55:10.778Z,101027.70
2019-06-01T19:58:18.773Z,101017.94
2019-06-01T20:01:25.365Z,101023.71
2019-06-01T20:04:31.992Z,101026.18
2019-06-01T20:07:38.379Z,101022.66
2019-06-01T20:10:44.796Z,101027.36
2019-06-01T20:13:51.339Z,101032.07
2019-06-01T20:16:57.701Z,101022.46
2019-06-01T20:20:04.374Z,101021.98
2019-06-01T20:23:11.283Z,101025.83
2019-06-01T20:26:17.855Z,101025.83
2019-06-01T20:29:24.206Z,101032.44
2019-06-01T20:32:30.709Z,101025.05
2019-06-01T20:35:37.063Z,101030.76
2019-06-01T20:38:43.521Z,101037.88
2019-06-01T20:41:49.953Z,101035.12
2019-06-01T20:44:56.479Z,101029.63
2019-06-01T20:48:02.873Z,101034.28
2019-06-01T20:51:09.367Z,101030.70
2019-06-01T20:54:16.898Z,101032.32
2019-06-01T20:57:24.015Z,101026.52
2019-06-01T21:00:31.903Z,101033.63
2019-06-01T21:03:38.777Z,101031.95
2019-06-01T21:06:45.412Z,101036.69
2019-06-01T21:09:51.952Z,101020.31
2019-06-01T21:12:58.360Z,101020.31
2019-06-01T21:16:04.817Z,101035.00
2019-06-01T21:19:11.252Z,101036.84
2019-06-01T21:22:18.524Z,101040.06
2019-06-01T21:25:25.482Z,101034.88
2019-06-01T21:28:32.034Z,101043.70
2019-06-01T21:31:38.470Z,101038.22
2019-06-01T21:34:44.770Z,101040.66
2019-06-01T21:37:51.144Z,101030.17
2019-06-01T21:40:58.665Z,101049.91
2019-06-01T21:44:05.096Z,101039.63
2019-06-01T21:47:11.467Z,101043.42
2019-06-01T21:50:18.246Z,101041.61
2019-06-01T21:53:24.782Z,101037.44
2019-06-01T21:56:31.192Z,101049.72
2019-06-01T21:59:37.628Z,101047.47
2019-06-01T22:02:44.001Z,101046.38
2019-06-01T22:05:50.721Z,101041.60
2019-06-01T22:08:57.354Z,101056.77
2019-06-01T22:12:03.830Z,101062.84
2019-06-01T22:15:10.949Z,101057.09
2019-06-01T22:18:17.638Z,101067.22
2019-06-01T22:21:23.997Z,101061.72
2019-06-01T22:24:30.307Z,101061.72
2019-06-01T22:27:36.825Z,101072.69
2019-06-01T22:30:43.336Z,101071.78
2019-06-01T22:33:49.612Z,101070.41
2019-06-01T22:36:56.145Z,101074.52
2019-06-01T22:40:02.508Z,101065.56
2019-06-01T22:43:09.013Z,101066.16
2019-06-01T22:46:15.391Z,101066.16
2019-06-01T22:49:22.660Z,101080.72
2019-06-01T22:52:29.205Z,101071.50
2019-06-01T22:55:35.718Z,101081.56
2019-06-01T22:58:42.115Z,101072.73
2019-06-01T23:01:48.497Z,101063.14
2019-06-01T23:04:54.994Z,101076.08
2019-06-01T23:08:01.594Z,101076.08
2019-06-01T23:11:08.164Z,101080.79
2019-06-01T23:14:14.644Z,101085.50
2019-06-01T23:17:21.552Z,101090.25
2019-06-01T23:20:28.070Z,101086.16
2019-06-01T23:23:34.438Z,101086.16
2019-06-01T23:26:41.243Z,101100.47
2019-06-01T23:29:47.788Z,101105.36
2019-06-01T23:32:54.110Z,101116.61
2019-06-01T23:36:00.450Z,101106.27
2019-06-01T23:39:07.638Z,101104.92
2019-06-01T23:42:13.992Z,101116.24
2019-06-01T23:45:20.521Z,101107.87
2019-06-01T23:48:27.242Z,101097.30
2019-06-01T23:51:34.040Z,101101.33
2019-06-01T23:54:41.448Z,101103.69
2019-06-01T23:57:47.915Z,101098.83
